Willow Bend, West Virginia
Current Conditions -  °F | °C
As of 7:35 AM on Thursday 23 Oct 2014 (Local Time) from KLWB Reporting Station
Overcast Overcast  
Wind Chill: 42°   Ceiling: 2000
Heat Index: 46°   Visibility: 10mi
Dew Point: 38°   Wind: 7mph
Humidity: 74%   Direction: 340°NNW
Pressure: 30.11"   Gusts: NA
Location:  37.5611°N, 80.5102°W
Report Text: KLWB 231135Z AUTO 34006KT 10SM OVC020 08/03 A3011 RMK AO2 T00750032
Loading
Personal Weather Stations






























Interactive Weather Map New forecast layout! Learn more

10-Day Weather Forecast

Advertisements
Track Severe Weather on mobile